createdAt,value
2023-05-01T00:04:35.174Z,3.41
2023-05-01T00:09:38.391Z,3.40
2023-05-01T00:14:42.130Z,3.39
2023-05-01T00:19:45.326Z,3.36
2023-05-01T00:24:49.358Z,3.32
2023-05-01T00:29:52.671Z,3.23
2023-05-01T00:34:57.846Z,3.16
2023-05-01T00:40:01.253Z,3.11
2023-05-01T00:45:04.801Z,3.11
2023-05-01T00:50:08.720Z,3.08
2023-05-01T00:55:12.129Z,3.00
2023-05-01T01:00:17.067Z,2.96
2023-05-01T01:05:24.728Z,2.98
2023-05-01T01:10:30.073Z,2.93
2023-05-01T01:15:38.573Z,2.92
2023-05-01T01:20:49.171Z,3.24
2023-05-01T01:26:10.915Z,3.62
2023-05-01T01:31:37.082Z,3.68
2023-05-01T01:36:58.818Z,3.80
2023-05-01T01:42:06.764Z,3.83
2023-05-01T01:47:14.145Z,3.47
2023-05-01T01:52:19.081Z,3.27
2023-05-01T01:57:24.040Z,3.12
2023-05-01T02:02:29.611Z,3.02
2023-05-01T02:07:33.300Z,3.01
2023-05-01T02:12:37.904Z,3.00
2023-05-01T02:17:41.924Z,2.94
2023-05-01T02:22:46.565Z,2.90
2023-05-01T02:28:10.861Z,2.88
2023-05-01T02:33:14.064Z,2.74
2023-05-01T02:38:17.685Z,2.61
2023-05-01T02:43:23.074Z,2.56
2023-05-01T02:48:28.710Z,2.55
2023-05-01T02:53:33.325Z,2.56
2023-05-01T02:58:37.249Z,2.60
2023-05-01T03:03:40.195Z,2.66
2023-05-01T03:08:43.403Z,2.67
2023-05-01T03:13:47.734Z,2.68
2023-05-01T03:18:50.742Z,2.84
2023-05-01T03:23:54.156Z,3.25
2023-05-01T03:28:57.265Z,3.77
2023-05-01T03:34:00.166Z,4.48
2023-05-01T03:39:04.937Z,5.28
2023-05-01T03:44:07.808Z,6.14
2023-05-01T03:49:10.721Z,6.73
2023-05-01T03:54:13.739Z,7.87
2023-05-01T03:59:16.737Z,8.95
2023-05-01T04:04:19.659Z,10.09
2023-05-01T04:09:22.647Z,11.21
2023-05-01T04:14:25.961Z,11.97
2023-05-01T04:19:28.883Z,12.83
2023-05-01T04:24:31.869Z,13.95
2023-05-01T04:29:34.774Z,15.21
2023-05-01T04:34:38.288Z,16.14
2023-05-01T04:39:41.399Z,16.78
2023-05-01T04:44:45.873Z,17.90
2023-05-01T04:49:48.736Z,19.15
2023-05-01T04:54:51.645Z,20.29
2023-05-01T04:59:54.788Z,20.99
2023-05-01T05:04:57.964Z,21.49
2023-05-01T05:10:00.870Z,22.11
2023-05-01T05:15:03.885Z,23.07
2023-05-01T05:20:07.821Z,23.92
2023-05-01T05:25:10.913Z,24.15
2023-05-01T05:30:14.142Z,24.40
2023-05-01T05:35:17.238Z,24.74
2023-05-01T05:40:20.546Z,25.32
2023-05-01T05:45:23.961Z,25.74
2023-05-01T05:50:26.971Z,26.05
2023-05-01T05:55:29.988Z,26.42
2023-05-01T06:00:33.315Z,26.76
2023-05-01T06:05:36.431Z,27.10
2023-05-01T06:10:43.561Z,27.38
2023-05-01T06:15:47.151Z,27.79
2023-05-01T06:20:50.251Z,27.89
2023-05-01T06:25:53.139Z,27.93
2023-05-01T06:30:56.379Z,27.97
2023-05-01T06:36:00.248Z,27.98
2023-05-01T06:41:05.667Z,28.37
2023-05-01T06:46:08.648Z,28.52
2023-05-01T06:51:15.047Z,28.32
2023-05-01T06:56:18.038Z,28.33
2023-05-01T07:01:21.369Z,28.36
2023-05-01T07:06:24.487Z,28.46
2023-05-01T07:11:27.880Z,28.44
2023-05-01T07:16:30.929Z,28.56
2023-05-01T07:21:33.991Z,28.23
2023-05-01T07:26:37.817Z,28.20
2023-05-01T07:31:42.155Z,27.93
2023-05-01T07:36:45.363Z,27.75
2023-05-01T07:41:48.474Z,27.91
2023-05-01T07:46:51.690Z,27.63
2023-05-01T07:51:55.896Z,27.57
2023-05-01T07:56:58.923Z,27.36
2023-05-01T08:02:02.184Z,27.06
2023-05-01T08:07:05.252Z,27.08
2023-05-01T08:12:08.356Z,27.06
2023-05-01T08:17:11.569Z,26.70
2023-05-01T08:22:14.573Z,26.46
2023-05-01T08:27:18.092Z,26.48
2023-05-01T08:32:21.820Z,26.46
2023-05-01T08:37:24.931Z,26.27
2023-05-01T08:42:29.878Z,26.10
2023-05-01T08:47:39.722Z,24.62
2023-05-01T08:52:44.056Z,21.93
2023-05-01T08:57:48.725Z,19.80
2023-05-01T09:02:52.339Z,18.27
2023-05-01T09:07:55.451Z,17.28
2023-05-01T09:13:04.014Z,16.53
2023-05-01T09:18:09.271Z,15.97
2023-05-01T09:23:12.355Z,15.70
2023-05-01T09:28:16.046Z,15.62
2023-05-01T09:33:19.095Z,15.48
2023-05-01T09:38:24.675Z,15.31
2023-05-01T09:43:29.760Z,15.34
2023-05-01T09:48:35.690Z,15.29
2023-05-01T09:53:40.944Z,15.27
2023-05-01T09:58:44.770Z,15.30
2023-05-01T10:03:54.478Z,15.28
2023-05-01T10:08:58.050Z,15.21
2023-05-01T10:14:11.332Z,15.28
2023-05-01T10:19:17.000Z,15.45
2023-05-01T10:24:20.489Z,15.60
2023-05-01T10:29:24.732Z,15.77
2023-05-01T10:34:28.848Z,15.89
2023-05-01T10:39:33.109Z,15.84
2023-05-01T10:44:36.306Z,15.83
2023-05-01T10:50:09.005Z,15.98
2023-05-01T10:55:34.865Z,16.20
2023-05-01T11:00:37.848Z,16.30
2023-05-01T11:06:05.738Z,16.34
2023-05-01T11:11:24.104Z,16.43
2023-05-01T11:16:42.553Z,16.53
2023-05-01T11:21:45.993Z,16.58
2023-05-01T11:26:49.927Z,16.62
2023-05-01T11:31:53.233Z,16.67
2023-05-01T11:36:56.344Z,16.81
2023-05-01T11:42:09.910Z,16.97
2023-05-01T11:47:13.925Z,17.10
2023-05-01T11:52:17.239Z,17.23
2023-05-01T11:57:20.553Z,17.35
2023-05-01T12:02:23.939Z,17.43
2023-05-01T12:07:27.081Z,17.51
2023-05-01T12:12:30.494Z,17.51
2023-05-01T12:17:33.826Z,17.50
2023-05-01T12:22:49.325Z,17.57
2023-05-01T12:27:52.880Z,17.71
2023-05-01T12:32:59.209Z,17.78
2023-05-01T12:38:12.889Z,17.83
2023-05-01T12:43:16.997Z,17.88
2023-05-01T12:48:20.983Z,17.97
2023-05-01T12:53:25.957Z,18.01
2023-05-01T12:58:37.238Z,17.99
2023-05-01T13:03:44.988Z,18.00
2023-05-01T13:08:48.209Z,18.00
2023-05-01T13:13:51.319Z,17.92
2023-05-01T13:18:54.425Z,17.91
2023-05-01T13:23:59.800Z,17.92
2023-05-01T13:29:05.890Z,17.90
2023-05-01T13:34:08.976Z,17.77
2023-05-01T13:39:21.330Z,17.59
2023-05-01T13:44:24.507Z,17.66
2023-05-01T13:49:27.724Z,17.67
2023-05-01T13:54:30.729Z,17.63
2023-05-01T13:59:45.738Z,17.68
2023-05-01T14:04:49.441Z,17.71
2023-05-01T14:10:00.020Z,17.60
2023-05-01T14:15:05.325Z,17.54
2023-05-01T14:20:08.884Z,17.60
2023-05-01T14:25:25.431Z,17.65
2023-05-01T14:30:38.483Z,17.78
2023-05-01T14:35:50.066Z,17.81
2023-05-01T14:40:53.091Z,17.69
2023-05-01T14:45:56.356Z,17.55
2023-05-01T14:51:00.449Z,17.46
2023-05-01T14:56:03.649Z,17.30
2023-05-01T15:01:06.665Z,17.16
2023-05-01T15:06:10.298Z,17.06
2023-05-01T15:11:14.434Z,17.01
2023-05-01T15:16:17.572Z,16.95
2023-05-01T15:21:20.634Z,16.91
2023-05-01T15:26:23.643Z,16.84
2023-05-01T15:31:26.676Z,16.77
2023-05-01T15:36:29.749Z,16.68
2023-05-01T15:41:32.756Z,16.59
2023-05-01T15:46:36.683Z,16.50
2023-05-01T15:51:39.795Z,16.41
2023-05-01T15:56:42.805Z,16.32
2023-05-01T16:01:45.909Z,16.25
2023-05-01T16:06:49.256Z,16.19
2023-05-01T16:11:52.345Z,16.11
2023-05-01T16:16:55.368Z,16.02
2023-05-01T16:21:58.749Z,15.93
2023-05-01T16:27:02.227Z,15.82
2023-05-01T16:32:06.234Z,15.72
2023-05-01T16:37:09.202Z,15.59
2023-05-01T16:42:13.409Z,15.45
2023-05-01T16:47:17.130Z,15.34
2023-05-01T16:52:20.369Z,15.25
2023-05-01T16:57:23.473Z,15.17
2023-05-01T17:02:26.669Z,15.06
2023-05-01T17:07:29.815Z,14.92
2023-05-01T17:12:32.907Z,14.79
2023-05-01T17:17:37.269Z,14.64
2023-05-01T17:22:40.459Z,14.46
2023-05-01T17:27:43.664Z,14.23
2023-05-01T17:32:46.790Z,13.99
2023-05-01T17:37:50.187Z,13.75
2023-05-01T17:42:53.303Z,13.51
2023-05-01T17:47:56.369Z,13.24
2023-05-01T17:52:59.422Z,12.97
2023-05-01T17:58:02.523Z,12.70
2023-05-01T18:03:06.521Z,12.41
2023-05-01T18:08:09.660Z,12.12
2023-05-01T18:13:13.183Z,11.86
2023-05-01T18:18:16.410Z,11.64
2023-05-01T18:23:19.608Z,11.42
2023-05-01T18:28:23.018Z,11.20
2023-05-01T18:33:26.193Z,11.03
2023-05-01T18:38:29.353Z,10.81
2023-05-01T18:43:32.554Z,10.57
2023-05-01T18:48:36.297Z,10.38
2023-05-01T18:53:39.595Z,10.21
2023-05-01T18:58:42.811Z,10.12
2023-05-01T19:03:46.232Z,10.07
2023-05-01T19:08:49.322Z,9.92
2023-05-01T19:13:52.952Z,9.76
2023-05-01T19:18:56.260Z,9.61
2023-05-01T19:23:59.364Z,9.43
2023-05-01T19:29:02.374Z,9.30
2023-05-01T19:34:05.486Z,9.19
2023-05-01T19:39:08.490Z,9.14
2023-05-01T19:44:11.702Z,9.11
2023-05-01T19:49:14.708Z,9.10
2023-05-01T19:54:17.641Z,9.08
2023-05-01T19:59:20.936Z,9.02
2023-05-01T20:04:24.499Z,8.94
2023-05-01T20:09:27.671Z,8.88
2023-05-01T20:14:33.466Z,8.77
2023-05-01T20:19:39.724Z,8.60
2023-05-01T20:24:43.132Z,8.43
2023-05-01T20:29:46.132Z,8.29
2023-05-01T20:34:49.349Z,8.18
2023-05-01T20:39:52.350Z,8.12
2023-05-01T20:44:55.457Z,8.06
2023-05-01T20:49:59.003Z,8.03
2023-05-01T20:55:03.636Z,7.98
2023-05-01T21:00:08.287Z,7.92
2023-05-01T21:05:11.795Z,7.84
2023-05-01T21:10:16.734Z,7.77
2023-05-01T21:15:20.058Z,7.73
2023-05-01T21:20:34.323Z,7.72
2023-05-01T21:25:37.538Z,7.70
2023-05-01T21:30:41.148Z,7.68
2023-05-01T21:35:46.923Z,7.66
2023-05-01T21:40:49.940Z,7.62
2023-05-01T21:45:53.247Z,7.59
2023-05-01T21:50:56.967Z,7.56
2023-05-01T21:56:00.692Z,7.57
2023-05-01T22:01:03.941Z,7.57
2023-05-01T22:06:07.459Z,7.57
2023-05-01T22:11:11.046Z,7.54
2023-05-01T22:16:14.293Z,7.49
2023-05-01T22:21:17.577Z,7.48
2023-05-01T22:26:20.774Z,7.43
2023-05-01T22:31:23.920Z,7.35
2023-05-01T22:36:26.999Z,7.27
2023-05-01T22:41:30.207Z,7.23
2023-05-01T22:46:33.375Z,7.20
2023-05-01T22:51:37.538Z,7.16
2023-05-01T22:56:40.557Z,7.13
2023-05-01T23:01:44.630Z,7.12
2023-05-01T23:06:47.727Z,7.17
2023-05-01T23:11:50.907Z,7.25
2023-05-01T23:16:54.120Z,7.90
2023-05-01T23:22:08.775Z,8.56
2023-05-01T23:27:12.733Z,8.52
2023-05-01T23:32:25.103Z,8.58
2023-05-01T23:37:28.364Z,8.68
2023-05-01T23:42:31.885Z,8.76
2023-05-01T23:47:35.834Z,8.79
2023-05-01T23:52:39.025Z,8.77
2023-05-01T23:57:42.350Z,8.74
